Time;durP1;ratioP1;P1;durP2;ratioP2;P2;SDS_P1;SDS_P2;PMS_P1;PMS_P2;Temp;Humidity;BMP_temperature;BMP_pressure;BME280_temperature;BME280_humidity;BME280_pressure;Samples;Min_cycle;Max_cycle;Signal;HPM_P1;HPM_P2
2021/06/16 00:00:37;;;;;;;5.13;2.65;;;;;;;;;;5154080;27;20101;-63
2021/06/16 00:03:03;;;;;;;4.95;2.15;;;;;;;;;;5153918;27;20014;-62
2021/06/16 00:05:30;;;;;;;8.65;2.60;;;;;;;;;;5153406;27;20029;-62
2021/06/16 00:07:56;;;;;;;5.93;2.35;;;;;;;;;;5153259;27;20019;-62
2021/06/16 00:10:25;;;;;;;4.68;2.25;;;;;;;;;;5153753;27;20044;-62
2021/06/16 00:12:51;;;;;;;5.53;2.83;;;;;;;;;;5153686;27;20377;-62
2021/06/16 00:15:20;;;;;;;4.72;2.58;;;;;;;;;;5153586;27;20102;-63
2021/06/16 00:17:46;;;;;;;5.65;2.83;;;;;;;;;;5153664;27;20025;-62
2021/06/16 00:20:12;;;;;;;4.18;2.28;;;;;;;;;;5153673;27;20029;-62
2021/06/16 00:22:38;;;;;;;6.65;2.35;;;;;;;;;;5152867;27;20022;-62
2021/06/16 00:25:05;;;;;;;5.45;2.75;;;;;;;;;;5153544;27;20015;-62
2021/06/16 00:27:31;;;;;;;5.00;2.50;;;;;;;;;;5153694;27;20064;-62
2021/06/16 00:29:57;;;;;;;5.70;2.70;;;;;;;;;;5153526;27;20102;-62
2021/06/16 00:32:24;;;;;;;6.70;2.92;;;;;;;;;;5153635;27;20019;-63
2021/06/16 00:34:50;;;;;;;4.88;2.50;;;;;;;;;;5153734;27;20031;-62
2021/06/16 00:37:16;;;;;;;4.45;2.53;;;;;;;;;;5153708;27;20055;-62
2021/06/16 00:39:42;;;;;;;5.35;2.90;;;;;;;;;;5153555;27;20465;-62
2021/06/16 00:42:08;;;;;;;5.70;2.45;;;;;;;;;;5153265;27;20481;-62
2021/06/16 00:44:34;;;;;;;5.57;2.47;;;;;;;;;;5153686;27;20465;-62
2021/06/16 00:47:01;;;;;;;4.45;2.38;;;;;;;;;;5153508;27;20027;-62
2021/06/16 00:49:27;;;;;;;6.00;2.80;;;;;;;;;;5153482;27;20529;-62
2021/06/16 00:51:53;;;;;;;6.85;2.70;;;;;;;;;;5153490;27;20030;-62
2021/06/16 00:54:19;;;;;;;3.95;2.22;;;;;;;;;;5153344;27;20046;-62
2021/06/16 00:56:46;;;;;;;4.75;2.60;;;;;;;;;;5153485;27;20463;-63
2021/06/16 00:59:12;;;;;;;6.22;2.47;;;;;;;;;;5153512;27;20019;-62
2021/06/16 01:01:44;;;;;;;5.00;2.70;;;;;;;;;;5153386;27;20030;-62
2021/06/16 01:04:10;;;;;;;6.50;2.40;;;;;;;;;;5153467;27;20019;-63
2021/06/16 01:06:39;;;;;;;6.93;3.20;;;;;;;;;;5135216;27;20095;-62
2021/06/16 01:09:11;;;;;;;5.53;2.60;;;;;;;;;;5138851;27;20023;-62
2021/06/16 01:11:41;;;;;;;4.55;2.30;;;;;;;;;;5132270;28;20090;-63
2021/06/16 01:14:12;;;;;;;5.28;2.40;;;;;;;;;;5132259;28;20031;-62
2021/06/16 01:16:43;;;;;;;4.70;2.42;;;;;;;;;;5132386;28;20016;-62
2021/06/16 01:19:18;;;;;;;5.30;2.63;;;;;;;;;;5135862;27;20070;-63
2021/06/16 01:21:46;;;;;;;8.32;2.60;;;;;;;;;;5136209;27;20019;-62
2021/06/16 01:24:16;;;;;;;5.95;2.90;;;;;;;;;;5136241;27;20026;-63
2021/06/16 01:26:46;;;;;;;4.82;2.72;;;;;;;;;;5136435;27;20416;-63
2021/06/16 01:29:18;;;;;;;5.93;2.80;;;;;;;;;;5135950;27;20020;-63
2021/06/16 01:31:44;;;;;;;5.82;2.60;;;;;;;;;;5136348;27;20094;-62
2021/06/16 01:34:11;;;;;;;4.55;2.50;;;;;;;;;;5135851;27;20460;-63
2021/06/16 01:36:40;;;;;;;4.90;2.45;;;;;;;;;;5135883;27;20069;-63
2021/06/16 01:39:07;;;;;;;5.75;3.00;;;;;;;;;;5135841;27;20019;-63
2021/06/16 01:41:33;;;;;;;6.57;2.78;;;;;;;;;;5135892;27;20642;-63
2021/06/16 01:44:01;;;;;;;5.15;2.67;;;;;;;;;;5117291;27;20038;-63
2021/06/16 01:46:27;;;;;;;6.47;2.85;;;;;;;;;;5135728;27;20034;-63
2021/06/16 01:48:54;;;;;;;6.53;2.85;;;;;;;;;;5135712;27;20023;-62
2021/06/16 01:51:21;;;;;;;5.03;2.65;;;;;;;;;;5135577;27;20055;-62
2021/06/16 01:53:48;;;;;;;5.15;2.67;;;;;;;;;;5135459;27;20031;-62
2021/06/16 01:56:14;;;;;;;6.25;3.03;;;;;;;;;;5135512;27;20385;-62
2021/06/16 01:58:43;;;;;;;4.28;2.35;;;;;;;;;;5135720;27;20479;-62
2021/06/16 02:01:09;;;;;;;5.63;2.80;;;;;;;;;;5135403;27;20094;-62
2021/06/16 02:03:36;;;;;;;4.30;2.25;;;;;;;;;;5135495;27;20344;-62
2021/06/16 02:06:02;;;;;;;5.30;2.65;;;;;;;;;;5116996;27;20063;-62
2021/06/16 02:08:29;;;;;;;6.43;2.67;;;;;;;;;;5135312;27;20027;-62
2021/06/16 02:10:55;;;;;;;6.65;3.10;;;;;;;;;;5135330;27;20029;-62
2021/06/16 02:13:27;;;;;;;5.97;2.65;;;;;;;;;;5135157;27;20031;-62
2021/06/16 02:15:56;;;;;;;6.80;3.10;;;;;;;;;;5135075;27;20011;-62
2021/06/16 02:18:43;;;;;;;6.63;2.85;;;;;;;;;;5135600;27;20076;-62
2021/06/16 02:21:09;;;;;;;7.55;2.65;;;;;;;;;;5116777;27;20027;-62
2021/06/16 02:23:36;;;;;;;6.05;2.75;;;;;;;;;;5135075;27;20057;-62
2021/06/16 02:26:02;;;;;;;5.43;2.80;;;;;;;;;;5135219;27;20023;-62
2021/06/16 02:28:28;;;;;;;6.70;2.88;;;;;;;;;;5134891;27;20026;-62
2021/06/16 02:30:54;;;;;;;4.95;2.58;;;;;;;;;;5134154;27;20015;-62
2021/06/16 02:33:20;;;;;;;5.40;2.63;;;;;;;;;;5134868;27;20038;-62
2021/06/16 02:35:47;;;;;;;5.78;2.75;;;;;;;;;;5134910;27;20019;-62
2021/06/16 02:38:17;;;;;;;4.93;2.60;;;;;;;;;;5116478;27;20037;-62
2021/06/16 02:40:43;;;;;;;6.25;3.20;;;;;;;;;;5134781;27;20026;-62
2021/06/16 02:43:10;;;;;;;5.05;2.63;;;;;;;;;;5134446;27;20059;-62
2021/06/16 02:45:37;;;;;;;5.72;2.90;;;;;;;;;;5134390;27;20444;-62
2021/06/16 02:48:04;;;;;;;6.07;2.58;;;;;;;;;;5134487;27;20046;-62
2021/06/16 02:50:30;;;;;;;5.45;2.40;;;;;;;;;;5134596;27;20064;-63
2021/06/16 02:52:58;;;;;;;5.05;2.58;;;;;;;;;;5134549;27;20054;-63
2021/06/16 02:55:25;;;;;;;5.03;2.70;;;;;;;;;;5134409;27;20478;-62
2021/06/16 02:57:52;;;;;;;6.00;2.80;;;;;;;;;;5134336;27;20019;-62
2021/06/16 03:00:18;;;;;;;5.35;2.63;;;;;;;;;;5133965;27;20369;-62
2021/06/16 03:02:49;;;;;;;5.18;2.55;;;;;;;;;;5133897;27;20012;-62
2021/06/16 03:05:16;;;;;;;4.95;2.40;;;;;;;;;;5115532;27;20011;-62
2021/06/16 03:07:42;;;;;;;5.20;2.45;;;;;;;;;;5134127;27;20022;-62
2021/06/16 03:10:09;;;;;;;6.40;2.80;;;;;;;;;;5134363;27;20043;-62
2021/06/16 03:12:36;;;;;;;6.95;2.78;;;;;;;;;;5134300;27;20459;-62
2021/06/16 03:15:03;;;;;;;5.43;2.67;;;;;;;;;;5134015;27;20031;-62
2021/06/16 03:17:29;;;;;;;5.38;2.53;;;;;;;;;;5134091;27;20015;-62
2021/06/16 03:19:57;;;;;;;5.55;2.60;;;;;;;;;;5133929;27;20031;-63
2021/06/16 03:22:24;;;;;;;5.70;2.78;;;;;;;;;;5133734;27;20475;-62
2021/06/16 03:24:51;;;;;;;7.43;3.05;;;;;;;;;;5133907;27;20091;-63
2021/06/16 03:27:19;;;;;;;6.18;2.78;;;;;;;;;;5133984;27;20027;-62
2021/06/16 03:29:46;;;;;;;5.78;2.65;;;;;;;;;;5133776;27;20023;-63
2021/06/16 03:32:12;;;;;;;5.38;2.65;;;;;;;;;;5133667;27;20034;-62
2021/06/16 03:34:38;;;;;;;5.47;2.80;;;;;;;;;;5133663;27;20034;-63
2021/06/16 03:37:07;;;;;;;6.15;2.50;;;;;;;;;;5133766;27;20015;-63
2021/06/16 03:39:34;;;;;;;5.65;2.60;;;;;;;;;;5133409;27;20027;-63
2021/06/16 03:42:02;;;;;;;5.22;2.47;;;;;;;;;;5133075;27;20023;-65
2021/06/16 03:44:28;;;;;;;5.82;2.60;;;;;;;;;;5133547;27;20492;-65
2021/06/16 03:46:55;;;;;;;5.55;2.35;;;;;;;;;;5133607;27;20700;-62
2021/06/16 03:49:21;;;;;;;4.82;2.38;;;;;;;;;;5133414;27;20027;-64
2021/06/16 03:51:48;;;;;;;8.32;2.85;;;;;;;;;;5133257;27;20099;-64
2021/06/16 03:54:15;;;;;;;6.03;2.63;;;;;;;;;;5133382;27;20031;-64
2021/06/16 03:56:44;;;;;;;4.90;2.67;;;;;;;;;;5133347;27;20022;-64
2021/06/16 03:59:12;;;;;;;4.22;2.33;;;;;;;;;;5133297;27;20023;-65
2021/06/16 04:01:39;;;;;;;4.63;2.13;;;;;;;;;;5133148;27;20355;-64
2021/06/16 04:04:06;;;;;;;4.38;2.42;;;;;;;;;;5133258;27;20015;-64
2021/06/16 04:06:33;;;;;;;5.63;2.60;;;;;;;;;;5133313;27;20679;-64
2021/06/16 04:08:59;;;;;;;5.22;2.38;;;;;;;;;;5133309;27;20027;-64
2021/06/16 04:11:25;;;;;;;5.40;2.45;;;;;;;;;;5133125;27;20802;-64
2021/06/16 04:13:55;;;;;;;5.30;2.20;;;;;;;;;;5114620;28;20421;-64
2021/06/16 04:16:21;;;;;;;6.18;2.10;;;;;;;;;;5133117;28;20094;-64
2021/06/16 04:18:47;;;;;;;5.90;2.90;;;;;;;;;;5133356;28;20062;-64
2021/06/16 04:21:13;;;;;;;5.57;2.38;;;;;;;;;;5133298;28;20474;-64
2021/06/16 04:23:39;;;;;;;5.47;2.33;;;;;;;;;;5144282;27;20474;-64
2021/06/16 04:26:05;;;;;;;5.47;2.80;;;;;;;;;;5153486;27;20019;-64
2021/06/16 04:28:31;;;;;;;5.38;2.70;;;;;;;;;;5153488;27;20027;-64
2021/06/16 04:30:57;;;;;;;6.38;2.83;;;;;;;;;;5153846;27;20621;-64
2021/06/16 04:33:23;;;;;;;5.78;2.80;;;;;;;;;;5153699;27;20039;-64
2021/06/16 04:35:49;;;;;;;5.00;2.47;;;;;;;;;;5153447;27;20098;-64
2021/06/16 04:38:15;;;;;;;5.72;2.63;;;;;;;;;;5153489;27;20027;-64
2021/06/16 04:40:41;;;;;;;4.40;2.50;;;;;;;;;;5134975;27;20027;-64
2021/06/16 04:43:07;;;;;;;5.70;2.85;;;;;;;;;;5153442;27;20728;-64
2021/06/16 04:45:33;;;;;;;6.10;2.67;;;;;;;;;;5135101;27;20026;-64
2021/06/16 04:47:59;;;;;;;5.50;2.83;;;;;;;;;;5153541;27;20064;-64
2021/06/16 04:50:25;;;;;;;4.88;2.40;;;;;;;;;;5153490;27;20132;-64
2021/06/16 04:52:51;;;;;;;6.18;2.90;;;;;;;;;;5154780;27;20026;-64
2021/06/16 04:55:17;;;;;;;4.50;2.45;;;;;;;;;;5138737;27;20574;-64
2021/06/16 04:57:43;;;;;;;5.68;2.55;;;;;;;;;;5157293;27;20362;-64
2021/06/16 05:00:11;;;;;;;5.15;2.47;;;;;;;;;;5157478;27;20462;-64
2021/06/16 05:02:37;;;;;;;5.93;2.35;;;;;;;;;;5157579;27;20083;-64
2021/06/16 05:05:05;;;;;;;4.60;2.55;;;;;;;;;;5157124;27;20710;-64
2021/06/16 05:07:31;;;;;;;4.60;2.20;;;;;;;;;;5157237;27;20023;-64
2021/06/16 05:09:57;;;;;;;5.03;2.47;;;;;;;;;;5157193;27;20138;-64
2021/06/16 05:12:23;;;;;;;4.47;2.35;;;;;;;;;;5157369;27;20018;-64
2021/06/16 05:14:49;;;;;;;6.15;2.50;;;;;;;;;;5138317;27;20485;-64
2021/06/16 05:17:16;;;;;;;6.25;2.38;;;;;;;;;;5156769;27;20023;-64
2021/06/16 05:19:45;;;;;;;4.70;2.33;;;;;;;;;;5156822;27;20019;-64
2021/06/16 05:22:13;;;;;;;4.60;2.40;;;;;;;;;;5156882;27;20015;-64
2021/06/16 05:24:39;;;;;;;3.72;2.03;;;;;;;;;;5157048;27;20369;-64
2021/06/16 05:27:05;;;;;;;5.35;2.33;;;;;;;;;;5156907;27;20023;-64
2021/06/16 05:29:31;;;;;;;4.10;2.30;;;;;;;;;;5157024;27;20034;-64
2021/06/16 05:31:57;;;;;;;4.55;2.17;;;;;;;;;;5156674;27;20108;-64
2021/06/16 05:34:23;;;;;;;5.15;2.20;;;;;;;;;;5155603;27;20495;-64
2021/06/16 05:36:50;;;;;;;7.32;2.63;;;;;;;;;;5155285;27;20532;-64
2021/06/16 05:39:16;;;;;;;8.18;2.22;;;;;;;;;;5155560;27;20034;-66
2021/06/16 05:41:42;;;;;;;6.28;2.22;;;;;;;;;;5155379;27;20090;-63
2021/06/16 05:44:08;;;;;;;9.63;2.65;;;;;;;;;;5155300;27;20034;-63
2021/06/16 05:46:34;;;;;;;9.75;2.40;;;;;;;;;;5154452;27;20569;-63
2021/06/16 05:49:00;;;;;;;11.48;2.28;;;;;;;;;;5156338;27;20022;-64
2021/06/16 05:51:26;;;;;;;4.85;2.25;;;;;;;;;;5156332;27;20097;-63
2021/06/16 05:53:53;;;;;;;7.72;2.40;;;;;;;;;;5156048;27;20031;-63
2021/06/16 05:56:19;;;;;;;9.32;2.70;;;;;;;;;;5137519;27;20019;-64
2021/06/16 05:58:45;;;;;;;11.35;2.40;;;;;;;;;;5155831;27;20075;-64
2021/06/16 06:01:11;;;;;;;7.57;2.58;;;;;;;;;;5156102;27;20064;-63
2021/06/16 06:03:37;;;;;;;8.13;2.20;;;;;;;;;;5155485;27;20027;-63
2021/06/16 06:06:03;;;;;;;5.35;2.30;;;;;;;;;;5155230;27;20090;-63
2021/06/16 06:08:29;;;;;;;7.22;1.98;;;;;;;;;;5156156;27;20079;-63
2021/06/16 06:10:57;;;;;;;5.82;2.30;;;;;;;;;;5156032;27;20019;-63
2021/06/16 06:13:23;;;;;;;8.18;2.08;;;;;;;;;;5155497;27;20052;-63
2021/06/16 06:15:49;;;;;;;4.47;2.00;;;;;;;;;;5155793;27;20027;-63
2021/06/16 06:18:15;;;;;;;5.07;2.05;;;;;;;;;;5155738;27;20018;-63
2021/06/16 06:20:41;;;;;;;5.15;2.10;;;;;;;;;;5155280;27;20088;-64
2021/06/16 06:23:08;;;;;;;5.82;2.13;;;;;;;;;;5155425;27;20029;-63
2021/06/16 06:25:35;;;;;;;5.32;2.10;;;;;;;;;;5155548;27;20492;-63
2021/06/16 06:28:02;;;;;;;12.77;2.40;;;;;;;;;;5155339;27;20422;-63
2021/06/16 06:30:28;;;;;;;7.80;2.28;;;;;;;;;;5155270;27;20461;-67
2021/06/16 06:32:54;;;;;;;5.03;2.20;;;;;;;;;;5155645;27;20441;-64
2021/06/16 06:35:20;;;;;;;5.72;2.35;;;;;;;;;;5154870;27;20023;-64
2021/06/16 06:37:46;;;;;;;6.57;2.22;;;;;;;;;;5154665;27;20019;-65
2021/06/16 06:40:12;;;;;;;4.60;2.15;;;;;;;;;;5154616;27;20043;-65
2021/06/16 06:42:38;;;;;;;9.65;2.38;;;;;;;;;;5154371;27;20070;-65
2021/06/16 06:45:06;;;;;;;6.32;2.05;;;;;;;;;;5154468;27;20500;-66
2021/06/16 06:47:32;;;;;;;5.05;2.00;;;;;;;;;;5135715;27;20015;-66
2021/06/16 06:49:58;;;;;;;6.55;2.17;;;;;;;;;;5154242;27;20044;-65
2021/06/16 06:52:24;;;;;;;6.15;1.75;;;;;;;;;;5154402;27;20027;-65
2021/06/16 06:54:50;;;;;;;5.60;2.03;;;;;;;;;;5154372;27;20034;-65
2021/06/16 06:57:16;;;;;;;4.53;1.90;;;;;;;;;;5154166;27;20026;-65
2021/06/16 06:59:42;;;;;;;4.55;1.73;;;;;;;;;;5154270;27;20109;-65
2021/06/16 07:02:09;;;;;;;5.97;1.85;;;;;;;;;;5154128;27;20022;-67
2021/06/16 07:04:35;;;;;;;7.32;1.90;;;;;;;;;;5135733;27;20133;-65
2021/06/16 07:07:01;;;;;;;4.18;2.17;;;;;;;;;;5154491;27;20465;-65
2021/06/16 07:09:27;;;;;;;7.15;2.22;;;;;;;;;;5154616;27;20061;-65
2021/06/16 07:11:53;;;;;;;5.35;2.35;;;;;;;;;;5154692;27;20026;-64
2021/06/16 07:14:19;;;;;;;6.95;1.95;;;;;;;;;;5154601;27;20420;-65
2021/06/16 07:16:45;;;;;;;5.53;2.15;;;;;;;;;;5153947;27;20050;-63
2021/06/16 07:19:11;;;;;;;4.72;1.90;;;;;;;;;;5136055;27;20030;-62
2021/06/16 07:21:37;;;;;;;6.32;2.20;;;;;;;;;;5154613;27;20035;-66
2021/06/16 07:24:05;;;;;;;7.07;2.38;;;;;;;;;;5154325;27;20102;-63
2021/06/16 07:26:31;;;;;;;7.93;2.10;;;;;;;;;;5154319;27;20483;-66
2021/06/16 07:28:57;;;;;;;5.15;2.30;;;;;;;;;;5154470;27;20216;-64
2021/06/16 07:31:23;;;;;;;14.68;3.33;;;;;;;;;;5154351;27;20029;-65
2021/06/16 07:33:49;;;;;;;4.25;1.65;;;;;;;;;;5153989;27;20030;-64
2021/06/16 07:36:15;;;;;;;6.43;2.17;;;;;;;;;;5154309;27;20019;-64
2021/06/16 07:38:41;;;;;;;5.15;2.00;;;;;;;;;;5139548;27;20027;-64
2021/06/16 07:41:07;;;;;;;8.98;2.03;;;;;;;;;;5150335;27;20110;-65
2021/06/16 07:43:34;;;;;;;4.80;2.17;;;;;;;;;;5153370;27;20067;-65
2021/06/16 07:46:00;;;;;;;9.20;2.67;;;;;;;;;;5153794;27;20026;-63
2021/06/16 07:48:26;;;;;;;6.97;2.33;;;;;;;;;;5154060;27;20485;-64
2021/06/16 07:50:52;;;;;;;5.35;2.33;;;;;;;;;;5153840;27;20462;-65
2021/06/16 07:53:18;;;;;;;6.28;1.90;;;;;;;;;;5153594;27;20027;-64
2021/06/16 07:55:44;;;;;;;6.10;2.03;;;;;;;;;;5153636;27;20026;-64
2021/06/16 07:58:10;;;;;;;6.38;2.33;;;;;;;;;;5153684;27;20098;-64
2021/06/16 08:00:37;;;;;;;5.05;2.42;;;;;;;;;;5152488;27;20044;-65
2021/06/16 08:03:03;;;;;;;5.28;2.65;;;;;;;;;;5153117;27;20038;-62
2021/06/16 08:05:29;;;;;;;7.05;1.85;;;;;;;;;;5153504;27;20025;-64
2021/06/16 08:07:56;;;;;;;5.95;2.40;;;;;;;;;;5153523;27;20019;-63
2021/06/16 08:10:22;;;;;;;5.50;2.00;;;;;;;;;;5153344;27;20525;-64
2021/06/16 08:12:48;;;;;;;4.78;2.05;;;;;;;;;;5153290;27;20027;-64
2021/06/16 08:15:14;;;;;;;4.97;2.00;;;;;;;;;;5153205;27;20389;-64
2021/06/16 08:17:40;;;;;;;5.68;1.67;;;;;;;;;;5153234;27;20015;-64
2021/06/16 08:20:07;;;;;;;5.50;2.28;;;;;;;;;;5153598;27;20037;-64
2021/06/16 08:22:34;;;;;;;5.30;1.67;;;;;;;;;;5152924;27;20022;-64
2021/06/16 08:25:01;;;;;;;5.30;2.35;;;;;;;;;;5132849;27;20034;-64
2021/06/16 08:27:27;;;;;;;3.95;1.50;;;;;;;;;;5133004;27;20435;-64
2021/06/16 08:29:54;;;;;;;5.45;1.70;;;;;;;;;;5136422;27;20402;-64
2021/06/16 08:32:20;;;;;;;3.45;1.67;;;;;;;;;;5136724;27;20094;-65
2021/06/16 08:34:46;;;;;;;5.28;1.98;;;;;;;;;;5117931;27;20084;-65
2021/06/16 08:37:12;;;;;;;5.25;2.13;;;;;;;;;;5136670;27;20015;-65
2021/06/16 08:39:38;;;;;;;4.35;1.70;;;;;;;;;;5136536;27;20038;-65
2021/06/16 08:42:05;;;;;;;4.35;1.80;;;;;;;;;;5119371;27;20059;-64
2021/06/16 08:44:31;;;;;;;4.55;1.92;;;;;;;;;;5138246;27;20480;-64
2021/06/16 08:46:57;;;;;;;3.55;1.67;;;;;;;;;;5138433;27;20469;-65
2021/06/16 08:49:23;;;;;;;4.15;1.83;;;;;;;;;;5157390;27;20019;-64
2021/06/16 08:51:49;;;;;;;6.45;2.03;;;;;;;;;;5138872;27;20135;-66
2021/06/16 08:54:15;;;;;;;6.03;1.88;;;;;;;;;;5138698;27;20034;-66
2021/06/16 08:56:41;;;;;;;7.93;1.90;;;;;;;;;;5157113;27;20033;-65
2021/06/16 08:59:08;;;;;;;9.23;2.05;;;;;;;;;;5138459;27;20022;-64
2021/06/16 09:01:34;;;;;;;9.35;2.30;;;;;;;;;;5157449;27;20018;-65
2021/06/16 09:04:00;;;;;;;5.95;2.03;;;;;;;;;;5157079;27;20503;-66
2021/06/16 09:06:30;;;;;;;7.75;1.80;;;;;;;;;;5157295;27;20019;-66
2021/06/16 09:09:07;;;;;;;4.45;1.60;;;;;;;;;;5138439;27;20023;-65
2021/06/16 09:11:40;;;;;;;6.47;1.73;;;;;;;;;;5138534;27;20026;-66
2021/06/16 09:14:14;;;;;;;4.38;1.92;;;;;;;;;;5138492;27;20026;-65
2021/06/16 09:16:40;;;;;;;7.00;1.63;;;;;;;;;;5157202;27;20015;-67
2021/06/16 09:19:17;;;;;;;3.97;1.80;;;;;;;;;;5157294;27;20030;-65
2021/06/16 09:21:43;;;;;;;5.60;2.00;;;;;;;;;;5138063;27;20030;-65
2021/06/16 09:24:09;;;;;;;4.05;1.88;;;;;;;;;;5137917;27;20027;-65
2021/06/16 09:26:36;;;;;;;9.10;1.92;;;;;;;;;;5156776;27;20041;-66
2021/06/16 09:29:02;;;;;;;4.28;1.73;;;;;;;;;;5156939;27;20020;-65
2021/06/16 09:31:34;;;;;;;9.30;1.70;;;;;;;;;;5156466;27;20018;-65
2021/06/16 09:34:00;;;;;;;;;;;;;;;;;;5156602;27;20035;-65
2021/06/16 09:36:26;;;;;;;12.60;2.30;;;;;;;;;;5138104;27;19956;-67
2021/06/16 09:38:53;;;;;;;3.05;1.48;;;;;;;;;;5156271;27;20088;-63
2021/06/16 09:41:20;;;;;;;13.07;1.98;;;;;;;;;;5155855;27;20015;-65
2021/06/16 09:43:48;;;;;;;6.40;1.90;;;;;;;;;;5155833;27;20039;-65
2021/06/16 09:46:15;;;;;;;5.18;2.20;;;;;;;;;;5156324;27;20015;-65
2021/06/16 09:48:43;;;;;;;5.53;2.15;;;;;;;;;;5156271;27;20024;-64
2021/06/16 09:51:21;;;;;;;5.07;2.15;;;;;;;;;;5137718;27;20113;-64
2021/06/16 09:53:50;;;;;;;5.00;1.90;;;;;;;;;;5155372;27;20042;-64
2021/06/16 09:56:16;;;;;;;6.15;2.05;;;;;;;;;;5155826;27;20023;-64
2021/06/16 09:58:42;;;;;;;6.20;2.58;;;;;;;;;;5155810;27;20047;-65
2021/06/16 10:01:09;;;;;;;7.55;2.53;;;;;;;;;;5155917;27;20019;-65
2021/06/16 10:03:35;;;;;;;8.65;2.75;;;;;;;;;;5156192;27;20015;-64
2021/06/16 10:06:04;;;;;;;6.30;1.95;;;;;;;;;;5155691;27;20492;-61
2021/06/16 10:08:30;;;;;;;4.28;1.65;;;;;;;;;;5156019;27;20031;-64
2021/06/16 10:10:57;;;;;;;4.78;2.10;;;;;;;;;;5155973;27;20684;-66
2021/06/16 10:13:25;;;;;;;5.45;2.15;;;;;;;;;;5155772;27;20068;-64
2021/06/16 10:15:52;;;;;;;4.60;2.10;;;;;;;;;;5155489;27;20022;-65
2021/06/16 10:18:18;;;;;;;7.55;2.30;;;;;;;;;;5155523;27;20011;-63
2021/06/16 10:20:44;;;;;;;6.75;1.90;;;;;;;;;;5155674;27;20385;-62
2021/06/16 10:23:10;;;;;;;3.40;1.55;;;;;;;;;;5155681;27;20046;-62
2021/06/16 10:25:36;;;;;;;5.90;1.92;;;;;;;;;;5155302;27;20055;-62
2021/06/16 10:28:03;;;;;;;5.35;1.70;;;;;;;;;;5155347;27;20026;-62
2021/06/16 10:30:40;;;;;;;5.03;1.92;;;;;;;;;;5155689;27;20377;-61
2021/06/16 10:33:26;;;;;;;4.43;2.17;;;;;;;;;;5155236;27;20018;-62
2021/06/16 10:36:06;;;;;;;7.22;1.85;;;;;;;;;;5155371;27;20027;-62
2021/06/16 10:38:32;;;;;;;5.95;1.80;;;;;;;;;;5155532;27;20473;-62
2021/06/16 10:40:59;;;;;;;5.07;1.60;;;;;;;;;;5155422;27;20027;-62
2021/06/16 10:43:31;;;;;;;6.00;2.10;;;;;;;;;;5154929;27;20053;-62
2021/06/16 10:45:58;;;;;;;5.00;2.13;;;;;;;;;;5136392;27;20030;-62
2021/06/16 10:49:00;;;;;;;7.25;2.20;;;;;;;;;;5155043;27;20102;-61
2021/06/16 10:51:38;;;;;;;4.03;1.88;;;;;;;;;;5049736;28;20024;-62
2021/06/16 10:54:19;;;;;;;3.47;1.70;;;;;;;;;;5142721;27;20607;-62
2021/06/16 10:56:54;;;;;;;6.60;2.20;;;;;;;;;;5155211;27;20027;-65
2021/06/16 10:59:40;;;;;;;4.32;1.88;;;;;;;;;;5136166;27;20030;-66
2021/06/16 11:02:06;;;;;;;4.45;1.90;;;;;;;;;;5136854;27;20035;-62
2021/06/16 11:04:32;;;;;;;5.22;2.20;;;;;;;;;;5154604;27;20435;-62
2021/06/16 11:06:59;;;;;;;4.47;2.00;;;;;;;;;;5154700;27;20023;-62
2021/06/16 11:09:44;;;;;;;5.55;1.92;;;;;;;;;;5154543;27;20042;-62
2021/06/16 11:12:10;;;;;;;4.00;2.00;;;;;;;;;;5154365;27;20048;-62
2021/06/16 11:14:36;;;;;;;8.15;1.98;;;;;;;;;;5141403;27;20035;-62
2021/06/16 11:17:03;;;;;;;3.83;1.60;;;;;;;;;;5147554;27;20043;-62
2021/06/16 11:19:30;;;;;;;6.32;1.77;;;;;;;;;;5153927;27;20084;-62
2021/06/16 11:21:58;;;;;;;4.05;1.73;;;;;;;;;;5154090;27;20010;-62
2021/06/16 11:24:44;;;;;;;4.10;1.92;;;;;;;;;;5154190;27;20086;-62
2021/06/16 11:27:10;;;;;;;4.85;2.00;;;;;;;;;;5154127;27;20026;-62
2021/06/16 11:29:55;;;;;;;5.85;2.25;;;;;;;;;;5154121;27;20058;-62
2021/06/16 11:32:21;;;;;;;4.75;1.95;;;;;;;;;;5154022;27;20033;-62
2021/06/16 11:34:51;;;;;;;4.32;1.83;;;;;;;;;;5135339;27;20034;-62
2021/06/16 11:37:36;;;;;;;4.25;1.73;;;;;;;;;;5135412;27;20442;-62
2021/06/16 11:40:05;;;;;;;6.63;1.80;;;;;;;;;;5154271;27;20019;-62
2021/06/16 11:42:32;;;;;;;7.82;1.95;;;;;;;;;;5152436;27;20038;-62
2021/06/16 11:44:58;;;;;;;3.53;1.70;;;;;;;;;;5152510;27;20065;-63
2021/06/16 11:47:25;;;;;;;2.72;1.42;;;;;;;;;;5144517;27;20023;-62
2021/06/16 11:49:59;;;;;;;3.28;1.75;;;;;;;;;;5144370;27;20227;-62
2021/06/16 11:52:25;;;;;;;4.75;2.13;;;;;;;;;;5143120;27;20321;-62
2021/06/16 11:54:51;;;;;;;3.92;1.65;;;;;;;;;;5140919;27;20035;-62
2021/06/16 11:57:19;;;;;;;5.60;2.00;;;;;;;;;;5147206;27;20135;-62
2021/06/16 11:59:49;;;;;;;4.43;1.90;;;;;;;;;;5144504;27;20018;-63
2021/06/16 12:02:20;;;;;;;5.18;1.85;;;;;;;;;;5135053;27;20030;-62
2021/06/16 12:04:50;;;;;;;4.43;1.70;;;;;;;;;;5153762;27;20022;-62
2021/06/16 12:07:20;;;;;;;3.35;1.80;;;;;;;;;;5153798;27;20101;-62
2021/06/16 12:09:47;;;;;;;6.85;1.65;;;;;;;;;;5153489;27;20023;-63
2021/06/16 12:12:13;;;;;;;5.15;1.70;;;;;;;;;;5153129;27;20014;-61
2021/06/16 12:14:39;;;;;;;4.00;1.67;;;;;;;;;;5153308;27;20031;-62
2021/06/16 12:17:05;;;;;;;6.32;2.35;;;;;;;;;;5153108;27;20015;-63
2021/06/16 12:19:39;;;;;;;4.25;1.85;;;;;;;;;;5153547;27;20054;-64
2021/06/16 12:22:06;;;;;;;3.72;1.70;;;;;;;;;;5149681;27;20487;-63
2021/06/16 12:24:34;;;;;;;5.03;1.90;;;;;;;;;;5142811;27;20052;-64
2021/06/16 12:27:04;;;;;;;6.75;2.03;;;;;;;;;;5152607;27;20540;-64
2021/06/16 12:29:38;;;;;;;4.25;1.65;;;;;;;;;;5134490;27;20106;-64
2021/06/16 12:32:07;;;;;;;4.03;1.50;;;;;;;;;;5153232;27;20015;-64
2021/06/16 12:37:05;;;;;;;;;;;;;;;;;;5150233;27;20037;-62
2021/06/16 12:39:32;;;;;;;3.75;1.50;;;;;;;;;;5140906;27;19903;-61
2021/06/16 12:42:05;;;;;;;4.07;1.60;;;;;;;;;;5125035;27;20026;-61
2021/06/16 12:44:34;;;;;;;;;;;;;;;;;;5135919;27;20034;-62
2021/06/16 12:47:13;;;;;;;6.35;1.77;;;;;;;;;;5132443;28;19998;-62
2021/06/16 12:49:39;;;;;;;3.20;1.50;;;;;;;;;;5132493;28;20027;-61
2021/06/16 12:52:07;;;;;;;4.45;1.73;;;;;;;;;;5132342;28;20074;-62
2021/06/16 12:54:46;;;;;;;3.83;1.60;;;;;;;;;;5132056;28;20027;-62
2021/06/16 12:57:19;;;;;;;3.42;1.40;;;;;;;;;;5132354;28;20107;-62
2021/06/16 12:59:45;;;;;;;5.90;1.65;;;;;;;;;;5132363;28;20055;-62
2021/06/16 13:02:12;;;;;;;4.85;1.65;;;;;;;;;;5132486;28;20090;-62
2021/06/16 13:04:41;;;;;;;4.60;1.60;;;;;;;;;;5132606;28;20026;-62
2021/06/16 13:07:07;;;;;;;4.10;1.55;;;;;;;;;;5132553;28;20023;-62
2021/06/16 13:09:33;;;;;;;3.65;1.60;;;;;;;;;;5132505;28;20019;-62
2021/06/16 13:12:04;;;;;;;3.22;1.50;;;;;;;;;;5132309;28;20112;-62
2021/06/16 13:14:35;;;;;;;4.00;1.50;;;;;;;;;;5134659;27;20027;-63
2021/06/16 13:17:08;;;;;;;3.42;1.40;;;;;;;;;;5136346;27;20020;-63
2021/06/16 13:19:53;;;;;;;3.40;1.67;;;;;;;;;;5136489;27;20381;-63
2021/06/16 13:22:30;;;;;;;5.72;1.48;;;;;;;;;;5136231;27;20025;-63
2021/06/16 13:24:59;;;;;;;3.40;1.40;;;;;;;;;;5136309;27;20108;-63
2021/06/16 13:27:25;;;;;;;2.95;1.25;;;;;;;;;;5136351;27;20026;-63
2021/06/16 13:29:58;;;;;;;3.17;1.27;;;;;;;;;;5136203;27;20422;-63
2021/06/16 13:32:24;;;;;;;3.85;1.50;;;;;;;;;;5117759;27;20080;-63
2021/06/16 13:34:50;;;;;;;5.88;1.33;;;;;;;;;;5135852;27;20039;-63
2021/06/16 13:37:16;;;;;;;3.30;1.38;;;;;;;;;;5135949;27;20080;-63
2021/06/16 13:39:42;;;;;;;3.17;1.40;;;;;;;;;;5135935;27;20076;-63
2021/06/16 13:42:08;;;;;;;3.92;1.23;;;;;;;;;;5135815;27;20027;-62
2021/06/16 13:44:38;;;;;;;3.72;1.45;;;;;;;;;;5117147;27;20058;-63
2021/06/16 13:47:04;;;;;;;2.88;1.30;;;;;;;;;;5135762;27;20527;-62
2021/06/16 13:49:30;;;;;;;3.92;1.63;;;;;;;;;;5135873;27;20023;-63
2021/06/16 13:51:56;;;;;;;5.03;1.60;;;;;;;;;;5146181;27;20018;-65
2021/06/16 13:54:23;;;;;;;7.47;1.88;;;;;;;;;;5152619;27;20031;-64
2021/06/16 13:56:49;;;;;;;4.45;1.63;;;;;;;;;;5145011;27;20042;-64
2021/06/16 13:59:15;;;;;;;3.53;1.50;;;;;;;;;;5145819;27;20490;-63
2021/06/16 14:01:41;;;;;;;4.00;1.60;;;;;;;;;;5143662;27;20077;-64
2021/06/16 14:04:07;;;;;;;6.38;1.65;;;;;;;;;;5125015;27;20034;-64
2021/06/16 14:06:33;;;;;;;3.45;1.50;;;;;;;;;;5144165;27;20035;-64
2021/06/16 14:09:00;;;;;;;4.15;1.52;;;;;;;;;;5146655;27;20045;-64
2021/06/16 14:11:26;;;;;;;4.85;1.50;;;;;;;;;;5145328;27;20015;-64
2021/06/16 14:13:52;;;;;;;3.65;1.50;;;;;;;;;;5143996;27;20027;-64
2021/06/16 14:16:18;;;;;;;5.05;1.70;;;;;;;;;;5149392;27;20023;-64
2021/06/16 14:18:44;;;;;;;3.97;1.60;;;;;;;;;;5153956;27;20083;-63
2021/06/16 14:21:10;;;;;;;5.18;1.63;;;;;;;;;;5152070;27;20023;-64
2021/06/16 14:23:36;;;;;;;4.70;1.63;;;;;;;;;;5145426;27;20015;-64
2021/06/16 14:26:05;;;;;;;3.33;1.50;;;;;;;;;;5142616;27;20035;-64
2021/06/16 14:28:31;;;;;;;4.50;1.67;;;;;;;;;;5143778;27;20079;-64
2021/06/16 14:30:57;;;;;;;5.15;1.60;;;;;;;;;;5127519;27;20125;-64
2021/06/16 14:33:23;;;;;;;5.80;1.90;;;;;;;;;;5154296;27;20031;-63
2021/06/16 14:35:50;;;;;;;6.38;1.50;;;;;;;;;;5153611;27;20698;-63
2021/06/16 14:38:16;;;;;;;3.05;1.50;;;;;;;;;;5153184;27;20015;-63
2021/06/16 14:40:42;;;;;;;7.47;1.67;;;;;;;;;;5153402;27;20026;-63
2021/06/16 14:43:08;;;;;;;4.32;1.58;;;;;;;;;;5154268;27;20397;-63
2021/06/16 14:45:34;;;;;;;2.60;1.40;;;;;;;;;;5154492;27;20030;-64
2021/06/16 14:48:00;;;;;;;3.83;1.45;;;;;;;;;;5154473;27;20105;-63